sensor_id;sensor_type;location;lat;lon;timestamp;P1;durP1;ratioP1;P2;durP2;ratioP2
69434;SDS011;56625;54.322;18.582;2023-09-07T00:01:33;23.30;;;11.50;;
69434;SDS011;56625;54.322;18.582;2023-09-07T00:04:00;22.20;;;11.10;;
69434;SDS011;56625;54.322;18.582;2023-09-07T00:06:27;21.30;;;10.90;;
69434;SDS011;56625;54.322;18.582;2023-09-07T00:08:54;18.90;;;10.30;;
69434;SDS011;56625;54.322;18.582;2023-09-07T00:11:20;19.50;;;10.00;;
69434;SDS011;56625;54.322;18.582;2023-09-07T00:13:47;19.00;;;10.40;;
69434;SDS011;56625;54.322;18.582;2023-09-07T00:16:13;19.50;;;10.10;;
69434;SDS011;56625;54.322;18.582;2023-09-07T00:18:41;19.50;;;9.80;;
69434;SDS011;56625;54.322;18.582;2023-09-07T00:21:07;18.60;;;9.80;;
69434;SDS011;56625;54.322;18.582;2023-09-07T00:23:34;20.70;;;9.80;;
69434;SDS011;56625;54.322;18.582;2023-09-07T00:26:01;17.50;;;8.70;;
69434;SDS011;56625;54.322;18.582;2023-09-07T00:28:27;19.80;;;9.40;;
69434;SDS011;56625;54.322;18.582;2023-09-07T00:30:54;18.00;;;9.80;;
69434;SDS011;56625;54.322;18.582;2023-09-07T00:33:21;19.20;;;9.40;;
69434;SDS011;56625;54.322;18.582;2023-09-07T00:35:47;15.90;;;9.40;;
69434;SDS011;56625;54.322;18.582;2023-09-07T00:38:14;19.70;;;10.30;;
69434;SDS011;56625;54.322;18.582;2023-09-07T00:40:44;40.00;;;11.00;;
69434;SDS011;56625;54.322;18.582;2023-09-07T00:43:12;30.50;;;10.40;;
69434;SDS011;56625;54.322;18.582;2023-09-07T00:45:39;25.40;;;10.30;;
69434;SDS011;56625;54.322;18.582;2023-09-07T00:48:06;22.20;;;10.20;;
69434;SDS011;56625;54.322;18.582;2023-09-07T00:50:34;21.00;;;10.20;;
69434;SDS011;56625;54.322;18.582;2023-09-07T00:53:01;21.10;;;10.60;;
69434;SDS011;56625;54.322;18.582;2023-09-07T00:55:29;19.60;;;9.80;;
69434;SDS011;56625;54.322;18.582;2023-09-07T00:57:59;17.70;;;10.10;;
69434;SDS011;56625;54.322;18.582;2023-09-07T01:00:25;20.10;;;10.70;;
69434;SDS011;56625;54.322;18.582;2023-09-07T01:02:52;18.80;;;10.80;;
69434;SDS011;56625;54.322;18.582;2023-09-07T01:05:26;19.50;;;10.30;;
69434;SDS011;56625;54.322;18.582;2023-09-07T01:08:03;17.40;;;9.30;;
69434;SDS011;56625;54.322;18.582;2023-09-07T01:10:37;17.70;;;9.50;;
69434;SDS011;56625;54.322;18.582;2023-09-07T01:13:03;17.10;;;9.60;;
69434;SDS011;56625;54.322;18.582;2023-09-07T01:15:30;20.50;;;10.20;;
69434;SDS011;56625;54.322;18.582;2023-09-07T01:17:58;21.40;;;11.30;;
69434;SDS011;56625;54.322;18.582;2023-09-07T01:20:47;24.00;;;12.10;;
69434;SDS011;56625;54.322;18.582;2023-09-07T01:23:15;21.70;;;11.00;;
69434;SDS011;56625;54.322;18.582;2023-09-07T01:25:42;20.10;;;10.40;;
69434;SDS011;56625;54.322;18.582;2023-09-07T01:28:09;21.60;;;10.10;;
69434;SDS011;56625;54.322;18.582;2023-09-07T01:30:36;21.30;;;10.50;;
69434;SDS011;56625;54.322;18.582;2023-09-07T01:33:05;19.60;;;10.30;;
69434;SDS011;56625;54.322;18.582;2023-09-07T01:35:33;20.90;;;9.90;;
69434;SDS011;56625;54.322;18.582;2023-09-07T01:38:00;18.70;;;10.60;;
69434;SDS011;56625;54.322;18.582;2023-09-07T01:40:28;20.20;;;10.30;;
69434;SDS011;56625;54.322;18.582;2023-09-07T01:42:55;22.50;;;10.70;;
69434;SDS011;56625;54.322;18.582;2023-09-07T01:45:22;23.90;;;11.60;;
69434;SDS011;56625;54.322;18.582;2023-09-07T01:47:50;22.40;;;11.40;;
69434;SDS011;56625;54.322;18.582;2023-09-07T01:50:18;26.00;;;12.20;;
69434;SDS011;56625;54.322;18.582;2023-09-07T01:52:47;23.00;;;12.40;;
69434;SDS011;56625;54.322;18.582;2023-09-07T01:55:17;21.70;;;10.90;;
69434;SDS011;56625;54.322;18.582;2023-09-07T01:57:43;24.10;;;12.00;;
69434;SDS011;56625;54.322;18.582;2023-09-07T02:00:11;23.20;;;12.90;;
69434;SDS011;56625;54.322;18.582;2023-09-07T02:02:39;28.90;;;15.00;;
69434;SDS011;56625;54.322;18.582;2023-09-07T02:05:05;26.20;;;12.20;;
69434;SDS011;56625;54.322;18.582;2023-09-07T02:07:33;22.90;;;12.50;;
69434;SDS011;56625;54.322;18.582;2023-09-07T02:09:59;30.40;;;15.60;;
69434;SDS011;56625;54.322;18.582;2023-09-07T02:12:26;25.20;;;13.30;;
69434;SDS011;56625;54.322;18.582;2023-09-07T02:14:52;22.10;;;12.00;;
69434;SDS011;56625;54.322;18.582;2023-09-07T02:17:19;29.90;;;15.30;;
69434;SDS011;56625;54.322;18.582;2023-09-07T02:19:47;28.00;;;13.80;;
69434;SDS011;56625;54.322;18.582;2023-09-07T02:22:14;26.00;;;13.60;;
69434;SDS011;56625;54.322;18.582;2023-09-07T02:24:40;22.30;;;12.40;;
69434;SDS011;56625;54.322;18.582;2023-09-07T02:27:07;22.10;;;12.00;;
69434;SDS011;56625;54.322;18.582;2023-09-07T02:29:33;21.70;;;11.90;;
69434;SDS011;56625;54.322;18.582;2023-09-07T02:32:00;23.70;;;12.50;;
69434;SDS011;56625;54.322;18.582;2023-09-07T02:34:27;22.90;;;12.00;;
69434;SDS011;56625;54.322;18.582;2023-09-07T02:36:53;25.50;;;14.10;;
69434;SDS011;56625;54.322;18.582;2023-09-07T02:39:20;27.20;;;14.20;;
69434;SDS011;56625;54.322;18.582;2023-09-07T02:41:47;26.90;;;14.30;;
69434;SDS011;56625;54.322;18.582;2023-09-07T02:44:13;26.40;;;13.70;;
69434;SDS011;56625;54.322;18.582;2023-09-07T02:46:40;24.30;;;13.50;;
69434;SDS011;56625;54.322;18.582;2023-09-07T02:49:07;25.10;;;14.20;;
69434;SDS011;56625;54.322;18.582;2023-09-07T02:51:34;24.70;;;14.70;;
69434;SDS011;56625;54.322;18.582;2023-09-07T02:54:01;24.90;;;14.30;;
69434;SDS011;56625;54.322;18.582;2023-09-07T02:56:29;26.50;;;14.80;;
69434;SDS011;56625;54.322;18.582;2023-09-07T02:58:56;24.20;;;13.80;;
69434;SDS011;56625;54.322;18.582;2023-09-07T03:01:23;26.40;;;15.20;;
69434;SDS011;56625;54.322;18.582;2023-09-07T03:03:49;25.10;;;13.80;;
69434;SDS011;56625;54.322;18.582;2023-09-07T03:06:16;23.20;;;13.50;;
69434;SDS011;56625;54.322;18.582;2023-09-07T03:08:43;25.30;;;13.80;;
69434;SDS011;56625;54.322;18.582;2023-09-07T03:11:10;23.40;;;13.90;;
69434;SDS011;56625;54.322;18.582;2023-09-07T03:13:38;21.10;;;12.50;;
69434;SDS011;56625;54.322;18.582;2023-09-07T03:16:05;20.20;;;12.30;;
69434;SDS011;56625;54.322;18.582;2023-09-07T03:18:32;22.40;;;12.80;;
69434;SDS011;56625;54.322;18.582;2023-09-07T03:21:01;25.50;;;14.00;;
69434;SDS011;56625;54.322;18.582;2023-09-07T03:23:29;27.20;;;14.40;;
69434;SDS011;56625;54.322;18.582;2023-09-07T03:25:57;21.40;;;13.30;;
69434;SDS011;56625;54.322;18.582;2023-09-07T03:28:25;25.70;;;13.10;;
69434;SDS011;56625;54.322;18.582;2023-09-07T03:30:53;24.00;;;13.60;;
69434;SDS011;56625;54.322;18.582;2023-09-07T03:33:21;22.20;;;13.20;;
69434;SDS011;56625;54.322;18.582;2023-09-07T03:35:49;25.90;;;12.40;;
69434;SDS011;56625;54.322;18.582;2023-09-07T03:38:15;22.20;;;12.70;;
69434;SDS011;56625;54.322;18.582;2023-09-07T03:40:42;20.90;;;11.50;;
69434;SDS011;56625;54.322;18.582;2023-09-07T03:43:09;19.50;;;10.50;;
69434;SDS011;56625;54.322;18.582;2023-09-07T03:45:36;17.90;;;10.60;;
69434;SDS011;56625;54.322;18.582;2023-09-07T03:48:03;18.60;;;10.80;;
69434;SDS011;56625;54.322;18.582;2023-09-07T03:50:30;18.90;;;10.60;;
69434;SDS011;56625;54.322;18.582;2023-09-07T03:52:56;20.00;;;10.40;;
69434;SDS011;56625;54.322;18.582;2023-09-07T03:55:23;20.30;;;10.80;;
69434;SDS011;56625;54.322;18.582;2023-09-07T03:57:50;16.30;;;9.70;;
69434;SDS011;56625;54.322;18.582;2023-09-07T04:00:17;18.60;;;10.40;;
69434;SDS011;56625;54.322;18.582;2023-09-07T04:02:45;17.50;;;9.30;;
69434;SDS011;56625;54.322;18.582;2023-09-07T04:05:12;18.00;;;10.30;;
69434;SDS011;56625;54.322;18.582;2023-09-07T04:07:41;19.40;;;10.20;;
69434;SDS011;56625;54.322;18.582;2023-09-07T04:10:08;18.40;;;9.70;;
69434;SDS011;56625;54.322;18.582;2023-09-07T04:12:35;16.10;;;9.80;;
69434;SDS011;56625;54.322;18.582;2023-09-07T04:15:02;19.30;;;9.90;;
69434;SDS011;56625;54.322;18.582;2023-09-07T04:17:29;18.20;;;9.30;;
69434;SDS011;56625;54.322;18.582;2023-09-07T04:19:56;19.20;;;9.60;;
69434;SDS011;56625;54.322;18.582;2023-09-07T04:22:22;15.60;;;9.20;;
69434;SDS011;56625;54.322;18.582;2023-09-07T04:24:49;17.00;;;10.10;;
69434;SDS011;56625;54.322;18.582;2023-09-07T04:27:16;17.00;;;9.00;;
69434;SDS011;56625;54.322;18.582;2023-09-07T04:29:43;15.00;;;9.00;;
69434;SDS011;56625;54.322;18.582;2023-09-07T04:32:10;15.80;;;8.80;;
69434;SDS011;56625;54.322;18.582;2023-09-07T04:34:38;16.70;;;7.90;;
69434;SDS011;56625;54.322;18.582;2023-09-07T04:37:04;15.00;;;7.80;;
69434;SDS011;56625;54.322;18.582;2023-09-07T04:39:31;16.00;;;7.80;;
69434;SDS011;56625;54.322;18.582;2023-09-07T04:41:58;14.40;;;7.80;;
69434;SDS011;56625;54.322;18.582;2023-09-07T04:44:26;16.70;;;9.80;;
69434;SDS011;56625;54.322;18.582;2023-09-07T04:46:57;15.90;;;9.10;;
69434;SDS011;56625;54.322;18.582;2023-09-07T04:49:24;16.00;;;9.30;;
69434;SDS011;56625;54.322;18.582;2023-09-07T04:51:53;19.70;;;10.20;;
69434;SDS011;56625;54.322;18.582;2023-09-07T04:54:21;17.00;;;8.80;;
69434;SDS011;56625;54.322;18.582;2023-09-07T04:56:47;15.80;;;9.10;;
69434;SDS011;56625;54.322;18.582;2023-09-07T04:59:14;14.60;;;8.30;;
69434;SDS011;56625;54.322;18.582;2023-09-07T05:01:41;16.30;;;8.90;;
69434;SDS011;56625;54.322;18.582;2023-09-07T05:04:08;13.40;;;7.70;;
69434;SDS011;56625;54.322;18.582;2023-09-07T05:06:35;17.10;;;9.30;;
69434;SDS011;56625;54.322;18.582;2023-09-07T05:09:03;15.60;;;8.60;;
69434;SDS011;56625;54.322;18.582;2023-09-07T05:11:30;16.70;;;8.60;;
69434;SDS011;56625;54.322;18.582;2023-09-07T05:13:57;15.30;;;8.20;;
69434;SDS011;56625;54.322;18.582;2023-09-07T05:16:23;13.70;;;7.50;;
69434;SDS011;56625;54.322;18.582;2023-09-07T05:18:51;16.40;;;8.90;;
69434;SDS011;56625;54.322;18.582;2023-09-07T05:21:18;15.50;;;8.60;;
69434;SDS011;56625;54.322;18.582;2023-09-07T05:23:44;17.50;;;8.80;;
69434;SDS011;56625;54.322;18.582;2023-09-07T05:26:13;15.20;;;8.00;;
69434;SDS011;56625;54.322;18.582;2023-09-07T05:28:40;15.00;;;7.60;;
69434;SDS011;56625;54.322;18.582;2023-09-07T05:31:08;14.60;;;7.70;;
69434;SDS011;56625;54.322;18.582;2023-09-07T05:33:34;15.10;;;7.80;;
69434;SDS011;56625;54.322;18.582;2023-09-07T05:36:01;18.20;;;8.10;;
69434;SDS011;56625;54.322;18.582;2023-09-07T05:38:28;17.30;;;8.20;;
69434;SDS011;56625;54.322;18.582;2023-09-07T05:40:58;13.40;;;7.70;;
69434;SDS011;56625;54.322;18.582;2023-09-07T05:43:25;13.40;;;7.30;;
69434;SDS011;56625;54.322;18.582;2023-09-07T05:45:52;14.70;;;7.80;;
69434;SDS011;56625;54.322;18.582;2023-09-07T05:48:20;12.70;;;6.70;;
69434;SDS011;56625;54.322;18.582;2023-09-07T05:50:47;11.10;;;6.40;;
69434;SDS011;56625;54.322;18.582;2023-09-07T05:53:14;10.80;;;5.90;;
69434;SDS011;56625;54.322;18.582;2023-09-07T05:55:40;12.30;;;6.10;;
69434;SDS011;56625;54.322;18.582;2023-09-07T05:58:08;12.00;;;5.70;;
69434;SDS011;56625;54.322;18.582;2023-09-07T06:00:35;10.60;;;6.10;;
69434;SDS011;56625;54.322;18.582;2023-09-07T06:03:04;10.80;;;5.90;;
69434;SDS011;56625;54.322;18.582;2023-09-07T06:05:34;11.80;;;6.80;;
69434;SDS011;56625;54.322;18.582;2023-09-07T06:08:03;10.60;;;6.00;;
69434;SDS011;56625;54.322;18.582;2023-09-07T06:10:30;10.70;;;5.80;;
69434;SDS011;56625;54.322;18.582;2023-09-07T06:12:58;10.10;;;6.60;;
69434;SDS011;56625;54.322;18.582;2023-09-07T06:15:30;10.90;;;6.90;;
69434;SDS011;56625;54.322;18.582;2023-09-07T06:17:57;11.50;;;6.30;;
69434;SDS011;56625;54.322;18.582;2023-09-07T06:20:24;14.50;;;6.40;;
69434;SDS011;56625;54.322;18.582;2023-09-07T06:22:50;11.40;;;6.00;;
69434;SDS011;56625;54.322;18.582;2023-09-07T06:25:17;11.20;;;6.50;;
69434;SDS011;56625;54.322;18.582;2023-09-07T06:27:44;11.30;;;6.30;;
69434;SDS011;56625;54.322;18.582;2023-09-07T06:30:11;12.00;;;5.80;;
69434;SDS011;56625;54.322;18.582;2023-09-07T06:32:37;12.60;;;5.70;;
69434;SDS011;56625;54.322;18.582;2023-09-07T06:35:05;13.40;;;5.90;;
69434;SDS011;56625;54.322;18.582;2023-09-07T06:37:32;9.70;;;5.20;;
69434;SDS011;56625;54.322;18.582;2023-09-07T06:39:59;11.50;;;5.40;;
69434;SDS011;56625;54.322;18.582;2023-09-07T06:42:25;8.60;;;4.70;;
69434;SDS011;56625;54.322;18.582;2023-09-07T06:44:52;9.00;;;5.00;;
69434;SDS011;56625;54.322;18.582;2023-09-07T06:47:19;11.00;;;4.50;;
69434;SDS011;56625;54.322;18.582;2023-09-07T06:49:45;8.90;;;4.80;;
69434;SDS011;56625;54.322;18.582;2023-09-07T06:52:12;10.00;;;4.90;;
69434;SDS011;56625;54.322;18.582;2023-09-07T06:54:39;9.10;;;4.50;;
69434;SDS011;56625;54.322;18.582;2023-09-07T06:57:07;8.90;;;4.50;;
69434;SDS011;56625;54.322;18.582;2023-09-07T06:59:35;8.90;;;4.50;;
69434;SDS011;56625;54.322;18.582;2023-09-07T07:02:02;8.90;;;4.50;;
69434;SDS011;56625;54.322;18.582;2023-09-07T07:04:31;8.50;;;4.00;;
69434;SDS011;56625;54.322;18.582;2023-09-07T07:06:58;8.60;;;4.30;;
69434;SDS011;56625;54.322;18.582;2023-09-07T07:09:27;9.50;;;4.50;;
69434;SDS011;56625;54.322;18.582;2023-09-07T07:11:55;9.00;;;4.70;;
69434;SDS011;56625;54.322;18.582;2023-09-07T07:14:21;8.20;;;4.50;;
69434;SDS011;56625;54.322;18.582;2023-09-07T07:16:48;8.80;;;4.40;;
69434;SDS011;56625;54.322;18.582;2023-09-07T07:19:15;8.70;;;4.20;;
69434;SDS011;56625;54.322;18.582;2023-09-07T07:21:41;10.10;;;4.60;;
69434;SDS011;56625;54.322;18.582;2023-09-07T07:24:08;9.10;;;5.00;;
69434;SDS011;56625;54.322;18.582;2023-09-07T07:26:35;9.50;;;4.50;;
69434;SDS011;56625;54.322;18.582;2023-09-07T07:29:02;11.50;;;4.70;;
69434;SDS011;56625;54.322;18.582;2023-09-07T07:31:32;10.50;;;4.30;;
69434;SDS011;56625;54.322;18.582;2023-09-07T07:33:59;10.20;;;5.00;;
69434;SDS011;56625;54.322;18.582;2023-09-07T07:36:25;11.30;;;4.90;;
69434;SDS011;56625;54.322;18.582;2023-09-07T07:38:52;8.30;;;5.10;;
69434;SDS011;56625;54.322;18.582;2023-09-07T07:41:19;10.30;;;5.60;;
69434;SDS011;56625;54.322;18.582;2023-09-07T07:43:45;12.10;;;5.50;;
69434;SDS011;56625;54.322;18.582;2023-09-07T07:46:12;10.40;;;4.40;;
69434;SDS011;56625;54.322;18.582;2023-09-07T07:48:42;12.20;;;5.10;;
69434;SDS011;56625;54.322;18.582;2023-09-07T07:51:08;9.20;;;4.50;;
69434;SDS011;56625;54.322;18.582;2023-09-07T07:53:38;8.60;;;4.80;;
69434;SDS011;56625;54.322;18.582;2023-09-07T07:56:05;12.30;;;4.80;;
69434;SDS011;56625;54.322;18.582;2023-09-07T07:58:31;9.30;;;4.60;;
69434;SDS011;56625;54.322;18.582;2023-09-07T08:00:58;9.70;;;4.40;;
69434;SDS011;56625;54.322;18.582;2023-09-07T08:03:25;8.70;;;5.00;;
69434;SDS011;56625;54.322;18.582;2023-09-07T08:05:52;9.50;;;5.00;;
69434;SDS011;56625;54.322;18.582;2023-09-07T08:08:18;8.90;;;4.20;;
69434;SDS011;56625;54.322;18.582;2023-09-07T08:10:45;9.60;;;5.30;;
69434;SDS011;56625;54.322;18.582;2023-09-07T08:13:12;9.70;;;4.90;;
69434;SDS011;56625;54.322;18.582;2023-09-07T08:15:39;11.40;;;4.20;;
69434;SDS011;56625;54.322;18.582;2023-09-07T08:18:06;8.50;;;4.40;;
69434;SDS011;56625;54.322;18.582;2023-09-07T08:20:33;9.60;;;4.80;;
69434;SDS011;56625;54.322;18.582;2023-09-07T08:23:00;10.30;;;4.90;;
69434;SDS011;56625;54.322;18.582;2023-09-07T08:25:30;9.30;;;4.40;;
69434;SDS011;56625;54.322;18.582;2023-09-07T08:27:59;11.40;;;5.10;;
69434;SDS011;56625;54.322;18.582;2023-09-07T08:30:26;9.90;;;4.40;;
69434;SDS011;56625;54.322;18.582;2023-09-07T08:32:55;7.00;;;3.80;;
69434;SDS011;56625;54.322;18.582;2023-09-07T08:35:22;9.30;;;4.70;;
69434;SDS011;56625;54.322;18.582;2023-09-07T08:37:54;8.00;;;4.30;;
69434;SDS011;56625;54.322;18.582;2023-09-07T08:40:26;10.10;;;5.10;;
69434;SDS011;56625;54.322;18.582;2023-09-07T08:42:54;9.00;;;5.20;;
69434;SDS011;56625;54.322;18.582;2023-09-07T08:45:25;9.60;;;4.90;;
69434;SDS011;56625;54.322;18.582;2023-09-07T08:47:57;9.80;;;4.70;;
69434;SDS011;56625;54.322;18.582;2023-09-07T08:50:26;9.70;;;4.60;;
69434;SDS011;56625;54.322;18.582;2023-09-07T08:52:54;9.90;;;4.70;;
69434;SDS011;56625;54.322;18.582;2023-09-07T08:55:21;9.60;;;4.70;;
69434;SDS011;56625;54.322;18.582;2023-09-07T08:57:48;11.40;;;5.00;;
69434;SDS011;56625;54.322;18.582;2023-09-07T09:00:15;9.30;;;4.90;;
69434;SDS011;56625;54.322;18.582;2023-09-07T09:02:46;11.40;;;5.00;;
69434;SDS011;56625;54.322;18.582;2023-09-07T09:05:23;11.30;;;4.90;;
69434;SDS011;56625;54.322;18.582;2023-09-07T09:08:04;10.90;;;5.40;;
69434;SDS011;56625;54.322;18.582;2023-09-07T09:10:31;10.20;;;5.10;;
69434;SDS011;56625;54.322;18.582;2023-09-07T09:12:58;10.80;;;5.10;;
69434;SDS011;56625;54.322;18.582;2023-09-07T09:15:26;8.50;;;4.60;;
69434;SDS011;56625;54.322;18.582;2023-09-07T09:17:53;9.40;;;4.80;;
69434;SDS011;56625;54.322;18.582;2023-09-07T09:20:24;8.70;;;4.90;;
69434;SDS011;56625;54.322;18.582;2023-09-07T09:22:54;8.40;;;4.80;;
69434;SDS011;56625;54.322;18.582;2023-09-07T09:25:23;7.90;;;4.50;;
69434;SDS011;56625;54.322;18.582;2023-09-07T09:27:50;9.10;;;4.20;;
69434;SDS011;56625;54.322;18.582;2023-09-07T09:30:17;11.50;;;4.70;;
69434;SDS011;56625;54.322;18.582;2023-09-07T09:32:44;8.10;;;4.40;;
69434;SDS011;56625;54.322;18.582;2023-09-07T09:35:11;10.10;;;4.70;;
69434;SDS011;56625;54.322;18.582;2023-09-07T09:37:48;10.50;;;4.30;;
69434;SDS011;56625;54.322;18.582;2023-09-07T09:40:15;8.90;;;4.70;;
69434;SDS011;56625;54.322;18.582;2023-09-07T09:42:43;9.80;;;4.90;;
69434;SDS011;56625;54.322;18.582;2023-09-07T09:45:12;10.80;;;5.10;;
69434;SDS011;56625;54.322;18.582;2023-09-07T09:47:40;11.20;;;5.00;;
69434;SDS011;56625;54.322;18.582;2023-09-07T09:50:10;9.40;;;4.70;;
69434;SDS011;56625;54.322;18.582;2023-09-07T09:52:38;8.90;;;5.20;;
69434;SDS011;56625;54.322;18.582;2023-09-07T09:55:07;10.60;;;4.50;;
69434;SDS011;56625;54.322;18.582;2023-09-07T09:57:35;11.30;;;4.50;;
69434;SDS011;56625;54.322;18.582;2023-09-07T10:00:06;7.40;;;4.40;;
69434;SDS011;56625;54.322;18.582;2023-09-07T10:03:02;8.70;;;4.10;;
69434;SDS011;56625;54.322;18.582;2023-09-07T10:05:34;9.70;;;4.30;;
69434;SDS011;56625;54.322;18.582;2023-09-07T10:08:09;9.30;;;4.50;;
69434;SDS011;56625;54.322;18.582;2023-09-07T10:10:42;9.20;;;4.10;;
69434;SDS011;56625;54.322;18.582;2023-09-07T10:13:13;8.90;;;4.40;;
69434;SDS011;56625;54.322;18.582;2023-09-07T10:15:41;9.80;;;4.70;;
69434;SDS011;56625;54.322;18.582;2023-09-07T10:18:14;11.00;;;4.40;;
69434;SDS011;56625;54.322;18.582;2023-09-07T10:23:16;8.90;;;4.30;;
69434;SDS011;56625;54.322;18.582;2023-09-07T10:25:47;9.80;;;4.50;;
69434;SDS011;56625;54.322;18.582;2023-09-07T10:28:33;8.70;;;4.50;;
69434;SDS011;56625;54.322;18.582;2023-09-07T10:31:13;9.60;;;4.90;;
69434;SDS011;56625;54.322;18.582;2023-09-07T10:33:41;8.00;;;4.10;;
69434;SDS011;56625;54.322;18.582;2023-09-07T10:36:22;8.40;;;4.00;;
69434;SDS011;56625;54.322;18.582;2023-09-07T10:38:51;7.40;;;4.20;;
69434;SDS011;56625;54.322;18.582;2023-09-07T10:41:21;9.30;;;4.50;;
69434;SDS011;56625;54.322;18.582;2023-09-07T10:43:54;11.70;;;5.30;;
69434;SDS011;56625;54.322;18.582;2023-09-07T10:46:22;9.10;;;4.60;;
69434;SDS011;56625;54.322;18.582;2023-09-07T10:48:51;8.90;;;4.30;;
69434;SDS011;56625;54.322;18.582;2023-09-07T10:51:19;10.90;;;4.40;;
69434;SDS011;56625;54.322;18.582;2023-09-07T10:53:47;11.20;;;4.10;;
69434;SDS011;56625;54.322;18.582;2023-09-07T10:56:14;8.30;;;4.10;;
69434;SDS011;56625;54.322;18.582;2023-09-07T10:58:41;9.50;;;4.30;;
69434;SDS011;56625;54.322;18.582;2023-09-07T11:01:10;8.60;;;4.40;;
69434;SDS011;56625;54.322;18.582;2023-09-07T11:03:37;9.50;;;4.30;;
69434;SDS011;56625;54.322;18.582;2023-09-07T11:06:09;9.90;;;4.60;;
69434;SDS011;56625;54.322;18.582;2023-09-07T11:08:38;9.00;;;4.50;;
69434;SDS011;56625;54.322;18.582;2023-09-07T11:11:05;11.60;;;4.50;;
69434;SDS011;56625;54.322;18.582;2023-09-07T11:13:32;10.00;;;4.50;;
69434;SDS011;56625;54.322;18.582;2023-09-07T11:16:00;11.20;;;4.30;;
69434;SDS011;56625;54.322;18.582;2023-09-07T11:18:27;8.60;;;4.40;;
69434;SDS011;56625;54.322;18.582;2023-09-07T11:20:54;12.30;;;4.80;;
69434;SDS011;56625;54.322;18.582;2023-09-07T11:23:22;10.30;;;4.50;;
69434;SDS011;56625;54.322;18.582;2023-09-07T11:25:50;10.10;;;4.40;;
69434;SDS011;56625;54.322;18.582;2023-09-07T11:28:19;12.70;;;4.90;;
69434;SDS011;56625;54.322;18.582;2023-09-07T11:30:52;11.20;;;5.20;;
69434;SDS011;56625;54.322;18.582;2023-09-07T11:33:21;9.70;;;4.50;;
69434;SDS011;56625;54.322;18.582;2023-09-07T11:35:49;10.60;;;5.00;;
69434;SDS011;56625;54.322;18.582;2023-09-07T11:38:17;9.40;;;4.70;;
69434;SDS011;56625;54.322;18.582;2023-09-07T11:40:44;13.00;;;4.50;;
69434;SDS011;56625;54.322;18.582;2023-09-07T11:43:12;10.10;;;4.60;;
69434;SDS011;56625;54.322;18.582;2023-09-07T11:45:44;10.20;;;4.60;;
69434;SDS011;56625;54.322;18.582;2023-09-07T11:48:12;8.10;;;4.00;;
69434;SDS011;56625;54.322;18.582;2023-09-07T11:50:39;9.80;;;4.50;;
69434;SDS011;56625;54.322;18.582;2023-09-07T11:53:07;10.50;;;4.00;;
69434;SDS011;56625;54.322;18.582;2023-09-07T11:55:35;10.80;;;4.50;;
69434;SDS011;56625;54.322;18.582;2023-09-07T11:58:05;9.10;;;3.90;;
69434;SDS011;56625;54.322;18.582;2023-09-07T12:00:31;10.10;;;4.00;;
69434;SDS011;56625;54.322;18.582;2023-09-07T12:02:58;9.70;;;4.50;;
69434;SDS011;56625;54.322;18.582;2023-09-07T12:05:26;10.00;;;4.30;;
69434;SDS011;56625;54.322;18.582;2023-09-07T12:07:53;13.60;;;4.50;;
69434;SDS011;56625;54.322;18.582;2023-09-07T12:10:20;13.80;;;4.80;;
69434;SDS011;56625;54.322;18.582;2023-09-07T12:12:47;9.60;;;4.20;;
69434;SDS011;56625;54.322;18.582;2023-09-07T12:15:14;11.30;;;4.60;;
69434;SDS011;56625;54.322;18.582;2023-09-07T12:17:40;13.70;;;4.60;;
69434;SDS011;56625;54.322;18.582;2023-09-07T12:20:08;13.10;;;4.70;;
69434;SDS011;56625;54.322;18.582;2023-09-07T12:22:40;13.70;;;4.60;;
69434;SDS011;56625;54.322;18.582;2023-09-07T12:25:07;16.80;;;4.90;;
69434;SDS011;56625;54.322;18.582;2023-09-07T12:27:42;14.60;;;4.30;;
69434;SDS011;56625;54.322;18.582;2023-09-07T12:30:19;9.30;;;4.00;;
69434;SDS011;56625;54.322;18.582;2023-09-07T12:32:48;13.40;;;4.60;;
69434;SDS011;56625;54.322;18.582;2023-09-07T12:35:15;14.70;;;4.40;;
69434;SDS011;56625;54.322;18.582;2023-09-07T12:37:43;13.80;;;4.10;;
69434;SDS011;56625;54.322;18.582;2023-09-07T12:40:11;10.90;;;4.40;;
69434;SDS011;56625;54.322;18.582;2023-09-07T12:42:43;14.20;;;4.80;;
69434;SDS011;56625;54.322;18.582;2023-09-07T12:45:12;11.30;;;4.20;;
69434;SDS011;56625;54.322;18.582;2023-09-07T12:47:40;13.30;;;4.00;;
69434;SDS011;56625;54.322;18.582;2023-09-07T12:50:07;10.50;;;3.80;;
69434;SDS011;56625;54.322;18.582;2023-09-07T12:52:37;11.90;;;3.70;;
69434;SDS011;56625;54.322;18.582;2023-09-07T12:55:05;10.90;;;4.40;;
69434;SDS011;56625;54.322;18.582;2023-09-07T12:57:33;10.20;;;3.50;;
69434;SDS011;56625;54.322;18.582;2023-09-07T13:00:04;9.90;;;4.00;;
69434;SDS011;56625;54.322;18.582;2023-09-07T13:02:33;12.10;;;4.20;;
69434;SDS011;56625;54.322;18.582;2023-09-07T13:05:00;10.30;;;4.10;;
69434;SDS011;56625;54.322;18.582;2023-09-07T13:07:27;9.80;;;3.90;;
69434;SDS011;56625;54.322;18.582;2023-09-07T13:09:53;10.90;;;3.50;;
69434;SDS011;56625;54.322;18.582;2023-09-07T13:12:21;11.50;;;3.80;;
69434;SDS011;56625;54.322;18.582;2023-09-07T13:14:47;9.40;;;3.50;;
69434;SDS011;56625;54.322;18.582;2023-09-07T13:17:14;13.70;;;4.70;;
69434;SDS011;56625;54.322;18.582;2023-09-07T13:19:41;9.40;;;3.60;;
69434;SDS011;56625;54.322;18.582;2023-09-07T13:22:09;9.20;;;3.80;;
69434;SDS011;56625;54.322;18.582;2023-09-07T13:24:36;10.80;;;3.20;;
69434;SDS011;56625;54.322;18.582;2023-09-07T13:27:03;10.60;;;3.60;;
69434;SDS011;56625;54.322;18.582;2023-09-07T13:29:31;12.50;;;3.80;;
69434;SDS011;56625;54.322;18.582;2023-09-07T13:31:59;11.00;;;3.70;;
69434;SDS011;56625;54.322;18.582;2023-09-07T13:34:26;9.40;;;3.20;;
69434;SDS011;56625;54.322;18.582;2023-09-07T13:36:53;10.20;;;3.20;;
69434;SDS011;56625;54.322;18.582;2023-09-07T13:39:21;8.60;;;2.90;;
69434;SDS011;56625;54.322;18.582;2023-09-07T13:41:48;9.60;;;3.00;;
69434;SDS011;56625;54.322;18.582;2023-09-07T13:44:15;12.50;;;3.10;;
69434;SDS011;56625;54.322;18.582;2023-09-07T13:46:44;10.10;;;2.90;;
69434;SDS011;56625;54.322;18.582;2023-09-07T13:49:11;9.10;;;3.10;;
69434;SDS011;56625;54.322;18.582;2023-09-07T13:51:40;8.70;;;2.70;;
69434;SDS011;56625;54.322;18.582;2023-09-07T13:54:10;8.90;;;3.10;;
69434;SDS011;56625;54.322;18.582;2023-09-07T13:56:37;10.20;;;3.20;;
69434;SDS011;56625;54.322;18.582;2023-09-07T13:59:04;10.80;;;3.20;;
69434;SDS011;56625;54.322;18.582;2023-09-07T14:01:31;8.10;;;3.10;;
69434;SDS011;56625;54.322;18.582;2023-09-07T14:03:59;11.50;;;3.10;;
69434;SDS011;56625;54.322;18.582;2023-09-07T14:06:26;8.80;;;2.70;;
69434;SDS011;56625;54.322;18.582;2023-09-07T14:08:53;8.30;;;2.60;;
69434;SDS011;56625;54.322;18.582;2023-09-07T14:11:19;9.00;;;3.10;;
69434;SDS011;56625;54.322;18.582;2023-09-07T14:13:49;7.10;;;2.40;;
69434;SDS011;56625;54.322;18.582;2023-09-07T14:16:22;8.40;;;2.80;;
69434;SDS011;56625;54.322;18.582;2023-09-07T14:18:49;8.20;;;2.70;;
69434;SDS011;56625;54.322;18.582;2023-09-07T14:21:16;11.00;;;2.70;;
69434;SDS011;56625;54.322;18.582;2023-09-07T14:23:44;7.70;;;2.50;;
69434;SDS011;56625;54.322;18.582;2023-09-07T14:26:11;6.90;;;2.30;;
69434;SDS011;56625;54.322;18.582;2023-09-07T14:28:38;8.20;;;2.80;;